createdAt,value
2023-03-24T00:00:00.381Z,99.90
2023-03-24T00:02:28.833Z,99.90
2023-03-24T00:04:58.451Z,99.90
2023-03-24T00:07:25.464Z,99.90
2023-03-24T00:09:53.693Z,99.90
2023-03-24T00:12:20.208Z,99.90
2023-03-24T00:14:46.690Z,99.90
2023-03-24T00:17:13.898Z,99.90
2023-03-24T00:19:41.141Z,99.90
2023-03-24T00:22:08.312Z,99.90
2023-03-24T00:24:35.215Z,99.90
2023-03-24T00:27:03.346Z,99.90
2023-03-24T00:29:29.892Z,99.90
2023-03-24T00:31:56.673Z,99.90
2023-03-24T00:34:23.201Z,99.90
2023-03-24T00:36:50.937Z,99.90
2023-03-24T00:39:20.598Z,99.90
2023-03-24T00:41:47.782Z,99.90
2023-03-24T00:44:18.326Z,99.90
2023-03-24T00:46:46.162Z,99.90
2023-03-24T00:49:13.193Z,99.90
2023-03-24T00:51:40.721Z,99.90
2023-03-24T00:54:07.941Z,99.90
2023-03-24T00:56:35.836Z,99.90
2023-03-24T00:59:05.727Z,99.90
2023-03-24T01:01:35.025Z,99.90
2023-03-24T01:04:02.429Z,99.90
2023-03-24T01:06:28.952Z,99.90
2023-03-24T01:08:55.452Z,99.90
2023-03-24T01:11:24.265Z,99.90
2023-03-24T01:13:51.597Z,99.90
2023-03-24T01:16:18.289Z,99.90
2023-03-24T01:18:45.319Z,99.90
2023-03-24T01:21:12.411Z,99.90
2023-03-24T01:23:39.363Z,99.90
2023-03-24T01:26:07.572Z,99.90
2023-03-24T01:28:38.063Z,99.90
2023-03-24T01:31:04.630Z,99.90
2023-03-24T01:33:31.189Z,99.90
2023-03-24T01:35:57.750Z,99.90
2023-03-24T01:38:24.273Z,99.90
2023-03-24T01:40:52.557Z,99.90
2023-03-24T01:43:21.109Z,99.90
2023-03-24T01:46:06.219Z,99.90
2023-03-24T01:48:42.866Z,99.90
2023-03-24T01:51:11.986Z,99.90
2023-03-24T01:53:40.465Z,99.90
2023-03-24T01:56:07.685Z,99.90
2023-03-24T01:58:35.975Z,99.90
2023-03-24T02:01:02.910Z,99.90
2023-03-24T02:03:33.909Z,99.90
2023-03-24T02:06:02.260Z,99.90
2023-03-24T02:08:41.147Z,99.90
2023-03-24T02:11:08.068Z,99.90
2023-03-24T02:13:34.782Z,99.90
2023-03-24T02:16:20.216Z,99.90
2023-03-24T02:19:09.612Z,99.90
2023-03-24T02:21:54.837Z,99.90
2023-03-24T02:24:40.057Z,99.90
2023-03-24T02:27:20.102Z,99.90
2023-03-24T02:29:56.137Z,99.90
2023-03-24T02:32:44.869Z,99.90
2023-03-24T02:35:14.242Z,99.90
2023-03-24T02:37:54.991Z,99.90
2023-03-24T02:40:23.830Z,99.90
2023-03-24T02:42:56.433Z,99.90
2023-03-24T02:45:49.744Z,99.90
2023-03-24T02:48:19.362Z,99.90
2023-03-24T02:50:48.986Z,99.90
2023-03-24T02:53:22.165Z,99.90
2023-03-24T02:55:54.968Z,99.90
2023-03-24T02:58:50.668Z,99.90
2023-03-24T03:01:32.144Z,99.90
2023-03-24T03:04:01.773Z,99.90
2023-03-24T03:06:31.062Z,99.90
2023-03-24T03:08:59.399Z,99.90
2023-03-24T03:11:25.928Z,99.90
2023-03-24T03:13:55.252Z,99.90
2023-03-24T03:16:38.398Z,99.90
2023-03-24T03:19:12.558Z,99.90
2023-03-24T03:21:41.398Z,99.90
2023-03-24T03:24:11.037Z,99.90
2023-03-24T03:26:37.748Z,99.90
2023-03-24T03:29:07.730Z,99.90
2023-03-24T03:31:36.194Z,99.90
2023-03-24T03:34:17.433Z,99.90
2023-03-24T03:36:47.817Z,99.90
2023-03-24T03:39:24.599Z,99.90
2023-03-24T03:41:51.154Z,99.90
2023-03-24T03:44:17.692Z,99.90
2023-03-24T03:46:44.311Z,99.90
2023-03-24T03:49:11.008Z,99.90
2023-03-24T03:51:37.760Z,99.90
2023-03-24T03:54:06.536Z,99.90
2023-03-24T03:56:33.994Z,99.90
2023-03-24T03:59:00.508Z,99.90
2023-03-24T04:01:29.551Z,99.90
2023-03-24T04:04:10.465Z,99.90
2023-03-24T04:06:59.876Z,99.90
2023-03-24T04:09:53.697Z,99.90
2023-03-24T04:12:20.266Z,99.90
2023-03-24T04:14:56.544Z,99.90
2023-03-24T04:17:42.187Z,99.90
2023-03-24T04:20:14.883Z,99.90
2023-03-24T04:23:03.167Z,99.90
2023-03-24T04:25:36.830Z,99.90
2023-03-24T04:28:09.645Z,99.90
2023-03-24T04:30:37.241Z,99.90
2023-03-24T04:33:05.058Z,99.90
2023-03-24T04:35:36.407Z,99.90
2023-03-24T04:38:05.377Z,99.90
2023-03-24T04:40:33.914Z,99.90
2023-03-24T04:43:03.696Z,99.90
2023-03-24T04:45:33.347Z,99.90
2023-03-24T04:48:02.887Z,99.90
2023-03-24T04:50:30.824Z,99.90
2023-03-24T04:52:57.575Z,99.90
2023-03-24T04:55:27.692Z,99.90
2023-03-24T04:57:54.391Z,99.90
2023-03-24T05:00:21.030Z,99.90
2023-03-24T05:02:47.659Z,99.90
2023-03-24T05:05:14.591Z,99.90
2023-03-24T05:07:42.418Z,99.90
2023-03-24T05:10:09.145Z,99.90
2023-03-24T05:12:35.637Z,99.90
2023-03-24T05:15:02.365Z,99.90
2023-03-24T05:17:28.922Z,99.90
2023-03-24T05:19:55.909Z,99.90
2023-03-24T05:22:22.430Z,99.90
2023-03-24T05:24:48.985Z,99.90
2023-03-24T05:27:15.717Z,99.90
2023-03-24T05:29:42.205Z,99.90
2023-03-24T05:32:08.681Z,99.90
2023-03-24T05:34:35.271Z,99.90
2023-03-24T05:37:01.924Z,99.90
2023-03-24T05:39:28.418Z,99.90
2023-03-24T05:41:54.963Z,99.90
2023-03-24T05:44:21.515Z,99.90
2023-03-24T05:46:48.072Z,99.90
2023-03-24T05:49:15.058Z,99.90
2023-03-24T05:51:41.548Z,99.90
2023-03-24T05:54:08.606Z,99.90
2023-03-24T05:56:35.231Z,99.90
2023-03-24T05:59:01.942Z,99.90
2023-03-24T06:01:28.970Z,99.90
2023-03-24T06:03:55.645Z,99.90
2023-03-24T06:06:22.529Z,99.90
2023-03-24T06:08:49.389Z,99.90
2023-03-24T06:11:16.712Z,99.90
2023-03-24T06:13:43.220Z,99.90
2023-03-24T06:16:09.915Z,99.90
2023-03-24T06:18:36.537Z,99.90
2023-03-24T06:21:03.761Z,99.90
2023-03-24T06:23:30.343Z,99.90
2023-03-24T06:25:58.405Z,99.90
2023-03-24T06:28:26.186Z,99.90
2023-03-24T06:30:52.728Z,99.90
2023-03-24T06:33:22.089Z,99.90
2023-03-24T06:35:48.665Z,99.90
2023-03-24T06:38:15.322Z,99.90
2023-03-24T06:40:41.953Z,99.90
2023-03-24T06:43:08.467Z,99.90
2023-03-24T06:45:35.022Z,99.90
2023-03-24T06:48:01.641Z,99.90
2023-03-24T06:50:33.104Z,99.90
2023-03-24T06:53:00.153Z,99.90
2023-03-24T06:55:26.991Z,99.90
2023-03-24T06:57:53.480Z,99.90
2023-03-24T07:00:20.153Z,99.90
2023-03-24T07:02:47.427Z,99.90
2023-03-24T07:05:14.640Z,99.90
2023-03-24T07:13:03.602Z,99.90
2023-03-24T07:15:30.342Z,99.90
2023-03-24T07:17:57.049Z,99.90
2023-03-24T07:20:23.700Z,99.10
2023-03-24T07:22:50.212Z,99.90
2023-03-24T07:25:20.006Z,99.90
2023-03-24T07:27:46.974Z,99.90
2023-03-24T07:30:13.915Z,99.90
2023-03-24T07:32:40.508Z,99.90
2023-03-24T07:35:07.819Z,99.90
2023-03-24T07:37:34.323Z,99.90
2023-03-24T07:40:00.861Z,99.90
2023-03-24T07:42:27.375Z,99.90
2023-03-24T07:44:53.884Z,99.90
2023-03-24T07:47:20.736Z,99.90
2023-03-24T07:49:47.367Z,99.90
2023-03-24T07:52:13.897Z,99.90
2023-03-24T07:54:40.394Z,99.90
2023-03-24T07:57:08.959Z,99.90
2023-03-24T07:59:38.033Z,99.90
2023-03-24T08:02:04.723Z,99.90
2023-03-24T08:04:32.626Z,99.90
2023-03-24T08:07:00.108Z,99.90
2023-03-24T08:09:26.620Z,99.90
2023-03-24T08:11:53.131Z,99.90
2023-03-24T08:14:19.691Z,99.90
2023-03-24T08:16:46.601Z,99.90
2023-03-24T08:19:13.191Z,99.90
2023-03-24T08:21:39.795Z,99.90
2023-03-24T08:24:06.785Z,99.90
2023-03-24T08:26:35.312Z,99.90
2023-03-24T08:29:02.167Z,99.90
2023-03-24T08:31:35.583Z,99.90
2023-03-24T08:34:02.239Z,99.90
2023-03-24T08:36:28.769Z,99.90
2023-03-24T08:38:55.866Z,99.90
2023-03-24T08:41:34.696Z,99.90
2023-03-24T08:44:05.624Z,99.90
2023-03-24T08:46:33.528Z,99.90
2023-03-24T08:49:00.424Z,99.90
2023-03-24T08:51:27.092Z,99.90
2023-03-24T08:53:55.247Z,99.90
2023-03-24T08:56:22.017Z,99.90
2023-03-24T08:58:51.080Z,99.90
2023-03-24T09:01:18.123Z,99.90
2023-03-24T09:03:44.869Z,99.90
2023-03-24T09:06:11.808Z,99.90
2023-03-24T09:08:38.521Z,99.90
2023-03-24T09:11:05.783Z,99.90
2023-03-24T09:13:32.520Z,99.90
2023-03-24T09:16:00.930Z,99.90
2023-03-24T09:18:27.510Z,99.90
2023-03-24T09:20:54.234Z,99.90
2023-03-24T09:23:21.522Z,99.90
2023-03-24T09:25:49.368Z,99.90
2023-03-24T09:28:16.251Z,99.90
2023-03-24T09:30:43.101Z,99.90
2023-03-24T09:33:10.218Z,99.90
2023-03-24T09:35:36.794Z,99.90
2023-03-24T09:38:03.408Z,99.90
2023-03-24T09:40:31.703Z,99.90
2023-03-24T09:43:03.614Z,99.90
2023-03-24T09:45:33.042Z,99.90
2023-03-24T09:48:02.113Z,99.90
2023-03-24T09:50:51.284Z,99.90
2023-03-24T09:53:34.664Z,99.90
2023-03-24T09:56:04.592Z,99.90
2023-03-24T09:58:32.025Z,99.90
2023-03-24T10:00:58.673Z,99.90
2023-03-24T10:03:25.806Z,99.90
2023-03-24T10:05:52.314Z,99.90
2023-03-24T10:08:21.698Z,99.90
2023-03-24T10:10:58.754Z,99.90
2023-03-24T10:13:32.611Z,99.90
2023-03-24T10:16:04.522Z,99.90
2023-03-24T10:18:34.703Z,99.90
2023-03-24T10:21:07.320Z,99.90
2023-03-24T10:23:37.546Z,99.90
2023-03-24T10:26:10.269Z,99.90
2023-03-24T10:28:57.119Z,99.90
2023-03-24T10:31:29.401Z,99.90
2023-03-24T10:33:56.798Z,99.90
2023-03-24T10:36:24.978Z,99.90
2023-03-24T10:38:51.531Z,99.90
2023-03-24T10:41:19.426Z,99.90
2023-03-24T10:43:47.194Z,99.90
2023-03-24T10:46:18.335Z,99.90
2023-03-24T10:48:49.817Z,99.90
2023-03-24T10:51:26.979Z,99.90
2023-03-24T10:54:11.146Z,99.90
2023-03-24T10:56:51.081Z,99.90
2023-03-24T10:59:27.400Z,99.90
2023-03-24T11:02:09.397Z,99.90
2023-03-24T11:04:38.614Z,99.90
2023-03-24T11:07:06.860Z,99.90
2023-03-24T11:09:41.006Z,99.90
2023-03-24T11:12:20.830Z,99.90
2023-03-24T11:14:47.326Z,99.90
2023-03-24T11:17:17.530Z,99.90
2023-03-24T11:19:54.739Z,99.90
2023-03-24T11:22:21.504Z,99.90
2023-03-24T11:24:50.500Z,99.90
2023-03-24T11:27:18.512Z,99.90
2023-03-24T11:29:48.995Z,99.90
2023-03-24T11:32:21.633Z,99.90
2023-03-24T11:34:51.164Z,99.90
2023-03-24T11:37:19.567Z,99.90
2023-03-24T11:40:06.852Z,98.90
2023-03-24T11:42:33.347Z,99.90
2023-03-24T11:45:00.158Z,99.90
2023-03-24T11:47:33.827Z,96.50
2023-03-24T11:50:09.811Z,94.00
2023-03-24T11:52:43.003Z,98.10
2023-03-24T11:55:17.265Z,99.90
2023-03-24T11:57:43.779Z,90.30
2023-03-24T12:00:30.042Z,96.90
2023-03-24T12:03:16.127Z,99.90
2023-03-24T12:05:50.311Z,99.90
2023-03-24T12:08:30.928Z,99.90
2023-03-24T12:11:05.011Z,99.90
2023-03-24T12:13:33.102Z,99.90
2023-03-24T12:16:04.893Z,99.90
2023-03-24T12:18:51.790Z,99.90
2023-03-24T12:21:21.405Z,99.90
2023-03-24T12:23:51.024Z,99.90
2023-03-24T12:26:17.592Z,99.90
2023-03-24T12:28:50.184Z,99.90
2023-03-24T12:31:32.025Z,99.90
2023-03-24T12:34:04.153Z,99.90
2023-03-24T12:36:37.211Z,99.90
2023-03-24T12:39:04.581Z,99.90
2023-03-24T12:41:40.483Z,99.90
2023-03-24T12:44:13.243Z,99.90
2023-03-24T12:46:48.884Z,99.90
2023-03-24T12:49:28.017Z,99.90
2023-03-24T12:52:15.136Z,99.90
2023-03-24T12:55:06.526Z,99.90
2023-03-24T12:57:36.428Z,99.90
2023-03-24T13:00:08.682Z,99.90
2023-03-24T13:02:38.266Z,99.90
2023-03-24T13:05:16.141Z,99.90
2023-03-24T13:07:47.881Z,99.90
2023-03-24T13:10:18.690Z,99.90
2023-03-24T13:12:48.122Z,99.90
2023-03-24T13:15:20.481Z,99.90
2023-03-24T13:18:08.955Z,99.90
2023-03-24T13:20:45.097Z,99.90
2023-03-24T13:23:24.683Z,99.90
2023-03-24T13:26:00.442Z,97.20
2023-03-24T13:28:32.613Z,99.90
2023-03-24T13:31:00.613Z,99.90
2023-03-24T13:33:28.792Z,99.90
2023-03-24T13:36:14.901Z,99.90
2023-03-24T13:38:43.437Z,99.90
2023-03-24T13:41:17.242Z,99.90
2023-03-24T13:43:51.034Z,99.90
2023-03-24T13:46:18.283Z,99.90
2023-03-24T13:48:46.564Z,99.90
2023-03-24T13:51:32.755Z,99.90
2023-03-24T13:54:03.433Z,99.90
2023-03-24T13:56:38.152Z,99.90
2023-03-24T13:59:07.497Z,99.90
2023-03-24T14:01:38.850Z,99.90
2023-03-24T14:04:26.041Z,99.90
2023-03-24T14:06:54.148Z,99.90
2023-03-24T14:09:26.291Z,99.90
2023-03-24T14:11:55.868Z,99.90
2023-03-24T14:14:23.371Z,99.90
2023-03-24T14:17:08.298Z,99.90
2023-03-24T14:19:45.001Z,99.90
2023-03-24T14:22:13.416Z,99.90
2023-03-24T14:24:40.759Z,99.90
2023-03-24T14:27:27.191Z,99.90
2023-03-24T14:29:54.324Z,99.90
2023-03-24T14:32:22.868Z,99.90
2023-03-24T14:35:02.468Z,99.90
2023-03-24T14:37:29.130Z,99.90
2023-03-24T14:39:59.182Z,99.90
2023-03-24T14:42:28.285Z,99.90
2023-03-24T14:44:56.492Z,99.90
2023-03-24T14:47:24.516Z,99.90
2023-03-24T14:49:52.707Z,99.90
2023-03-24T14:52:21.584Z,99.90
2023-03-24T14:54:51.235Z,99.90
2023-03-24T14:57:20.888Z,99.90
2023-03-24T14:59:52.677Z,99.90
2023-03-24T15:02:34.393Z,99.90
2023-03-24T15:05:22.500Z,99.90
2023-03-24T15:08:03.222Z,99.90
2023-03-24T15:10:36.418Z,99.90
2023-03-24T15:13:03.095Z,99.90
2023-03-24T15:15:29.731Z,99.90
2023-03-24T15:17:56.351Z,99.90
2023-03-24T15:20:24.498Z,99.90
2023-03-24T15:22:54.486Z,99.90
2023-03-24T15:25:28.112Z,99.90
2023-03-24T15:27:55.586Z,99.90
2023-03-24T15:30:22.187Z,99.90
2023-03-24T15:32:49.318Z,99.90
2023-03-24T15:35:18.256Z,99.90
2023-03-24T15:37:50.808Z,99.90
2023-03-24T15:40:26.735Z,99.90
2023-03-24T15:42:54.962Z,99.90
2023-03-24T15:45:24.791Z,99.90
2023-03-24T15:47:52.857Z,99.90
2023-03-24T15:50:37.211Z,99.90
2023-03-24T15:53:05.803Z,99.90
2023-03-24T15:55:34.806Z,99.90
2023-03-24T15:58:02.371Z,99.90
2023-03-24T16:00:35.912Z,99.90
2023-03-24T16:03:05.143Z,99.90
2023-03-24T16:05:32.320Z,99.90
2023-03-24T16:08:03.571Z,99.90
2023-03-24T16:10:39.235Z,99.90
2023-03-24T16:13:13.997Z,99.90
2023-03-24T16:15:41.672Z,99.90
2023-03-24T16:18:12.023Z,99.90
2023-03-24T16:20:38.600Z,99.90
2023-03-24T16:23:05.131Z,99.90
2023-03-24T16:25:32.610Z,99.90
2023-03-24T16:27:59.155Z,99.90
2023-03-24T16:30:26.635Z,99.90
2023-03-24T16:32:53.342Z,99.90
2023-03-24T16:35:19.890Z,99.90
2023-03-24T16:37:47.180Z,99.90
2023-03-24T16:40:36.832Z,99.90
2023-03-24T16:43:03.424Z,99.90
2023-03-24T16:45:30.554Z,99.90
2023-03-24T16:47:57.813Z,99.90
2023-03-24T16:50:27.409Z,99.90
2023-03-24T16:52:54.008Z,99.90
2023-03-24T16:55:20.674Z,99.90
2023-03-24T16:57:47.199Z,99.90
2023-03-24T17:00:13.939Z,99.90
2023-03-24T17:02:46.365Z,99.90
2023-03-24T17:05:19.303Z,99.90
2023-03-24T17:07:45.810Z,99.90
2023-03-24T17:10:12.348Z,99.90
2023-03-24T17:12:39.015Z,99.90
2023-03-24T17:15:06.131Z,99.90
2023-03-24T17:17:32.682Z,99.90
2023-03-24T17:19:59.644Z,99.90
2023-03-24T17:22:26.171Z,99.90
2023-03-24T17:24:57.730Z,99.90
2023-03-24T17:27:24.292Z,99.90
2023-03-24T17:29:50.925Z,99.90
2023-03-24T17:32:17.475Z,36.10
2023-03-24T17:34:47.274Z,23.40
2023-03-24T17:37:13.799Z,35.50
2023-03-24T17:39:40.456Z,54.80
2023-03-24T17:42:07.021Z,7.70
2023-03-24T17:44:33.779Z,1.00
2023-03-24T17:47:00.357Z,1.00
2023-03-24T17:49:26.923Z,4.80
2023-03-24T17:51:53.481Z,1.00
2023-03-24T17:54:20.410Z,1.00
2023-03-24T17:56:47.010Z,1.00
2023-03-24T17:59:14.401Z,16.10
2023-03-24T18:01:40.937Z,98.90
2023-03-24T18:04:08.050Z,1.00
2023-03-24T18:06:34.905Z,1.00
2023-03-24T18:09:01.485Z,1.00
2023-03-24T18:11:28.120Z,1.00
2023-03-24T18:13:54.770Z,1.00
2023-03-24T18:16:22.392Z,1.00
2023-03-24T18:18:49.550Z,1.00
2023-03-24T18:21:16.499Z,1.00
2023-03-24T18:23:43.111Z,1.00
2023-03-24T18:26:09.720Z,8.40
2023-03-24T18:28:39.801Z,1.00
2023-03-24T18:31:10.176Z,22.00
2023-03-24T18:33:36.786Z,5.00
2023-03-24T18:36:05.492Z,1.00
2023-03-24T18:38:32.079Z,1.00
2023-03-24T18:41:02.977Z,1.00
2023-03-24T18:43:40.944Z,6.10
2023-03-24T18:46:15.061Z,1.00
2023-03-24T18:48:42.566Z,1.00
2023-03-24T18:51:09.746Z,1.00
2023-03-24T18:53:36.841Z,1.00
2023-03-24T18:56:04.698Z,1.00
2023-03-24T18:58:31.295Z,1.00
2023-03-24T19:00:58.670Z,1.00
2023-03-24T19:03:26.104Z,1.00
2023-03-24T19:05:58.515Z,1.00
2023-03-24T19:08:25.068Z,1.00
2023-03-24T19:10:53.955Z,1.00
2023-03-24T19:13:20.486Z,1.00
2023-03-24T19:15:48.002Z,1.00
2023-03-24T19:18:14.981Z,1.00
2023-03-24T19:20:42.218Z,1.00
2023-03-24T19:23:09.068Z,1.00
2023-03-24T19:25:35.594Z,1.00
2023-03-24T19:28:03.851Z,1.00
2023-03-24T19:30:30.439Z,1.00
2023-03-24T19:32:57.082Z,1.00
2023-03-24T19:35:23.752Z,1.00
2023-03-24T19:37:50.506Z,1.00
2023-03-24T19:40:17.172Z,1.00
2023-03-24T19:42:44.960Z,1.00
2023-03-24T19:45:13.129Z,1.00
2023-03-24T19:47:39.655Z,1.00
2023-03-24T19:50:07.408Z,1.00
2023-03-24T19:52:34.326Z,1.00
2023-03-24T19:55:00.914Z,1.00
2023-03-24T19:57:30.266Z,1.00
2023-03-24T19:59:57.059Z,1.00
2023-03-24T20:02:24.533Z,1.00
2023-03-24T20:04:52.010Z,1.00
2023-03-24T20:07:18.664Z,1.00
2023-03-24T20:09:45.341Z,1.00
2023-03-24T20:12:11.864Z,1.00
2023-03-24T20:14:38.429Z,1.00
2023-03-24T20:17:05.229Z,1.00
2023-03-24T20:19:31.957Z,1.00
2023-03-24T20:21:58.444Z,1.00
2023-03-24T20:24:25.084Z,1.00
2023-03-24T20:26:51.681Z,1.00
2023-03-24T20:29:18.213Z,1.00
2023-03-24T20:31:45.090Z,1.00
2023-03-24T20:34:11.780Z,1.00
2023-03-24T20:36:38.473Z,1.00
2023-03-24T20:39:06.066Z,1.00
2023-03-24T20:41:32.854Z,1.00
2023-03-24T20:43:59.338Z,1.00
2023-03-24T20:46:26.085Z,1.00
2023-03-24T20:48:52.680Z,1.00
2023-03-24T20:51:19.414Z,1.00
2023-03-24T20:53:49.689Z,1.00
2023-03-24T20:56:19.276Z,1.00
2023-03-24T20:58:46.047Z,1.00
2023-03-24T21:01:20.316Z,1.00
2023-03-24T21:03:47.300Z,1.00
2023-03-24T21:06:15.744Z,1.00
2023-03-24T21:08:44.583Z,1.00
2023-03-24T21:11:11.926Z,1.00
2023-03-24T21:13:38.696Z,1.00
2023-03-24T21:16:09.156Z,1.00
2023-03-24T21:18:36.437Z,1.00
2023-03-24T21:21:03.774Z,1.00
2023-03-24T21:23:32.626Z,1.00
2023-03-24T21:25:59.155Z,1.00
2023-03-24T21:28:28.075Z,1.00
2023-03-24T21:30:55.722Z,1.00
2023-03-24T21:33:22.649Z,1.00
2023-03-24T21:35:49.360Z,1.00
2023-03-24T21:38:16.302Z,1.00
2023-03-24T21:40:43.016Z,1.00
2023-03-24T21:43:10.748Z,1.00
2023-03-24T21:45:37.359Z,1.00
2023-03-24T21:48:05.396Z,1.00
2023-03-24T21:50:38.660Z,1.00
2023-03-24T21:53:14.856Z,1.00
2023-03-24T21:55:52.015Z,1.00
2023-03-24T21:58:19.186Z,1.00
2023-03-24T22:00:46.415Z,99.90
2023-03-24T22:03:13.716Z,99.90
2023-03-24T22:05:40.459Z,92.90
2023-03-24T22:08:07.646Z,1.00
2023-03-24T22:10:34.997Z,1.00
2023-03-24T22:13:02.467Z,1.00
2023-03-24T22:15:32.442Z,1.00
2023-03-24T22:17:59.837Z,1.00
2023-03-24T22:20:28.667Z,99.90
2023-03-24T22:22:56.090Z,99.90
2023-03-24T22:25:24.181Z,99.90
2023-03-24T22:27:52.866Z,99.90
2023-03-24T22:30:19.755Z,99.90
2023-03-24T22:32:46.383Z,1.00
2023-03-24T22:35:13.103Z,1.00
2023-03-24T22:37:39.597Z,1.00
2023-03-24T22:40:07.320Z,1.00
2023-03-24T22:42:33.829Z,1.00
2023-03-24T22:45:00.490Z,62.00
2023-03-24T22:47:28.818Z,99.90
2023-03-24T22:49:55.365Z,1.00
2023-03-24T22:52:21.900Z,99.90
2023-03-24T22:54:48.441Z,99.90
2023-03-24T22:57:14.985Z,65.00
2023-03-24T22:59:41.740Z,99.90
2023-03-24T23:02:10.318Z,99.90
2023-03-24T23:04:37.381Z,99.90
2023-03-24T23:07:06.111Z,1.00
2023-03-24T23:09:32.916Z,99.90
2023-03-24T23:11:59.569Z,1.00
2023-03-24T23:14:26.379Z,28.80
2023-03-24T23:16:54.242Z,1.00
2023-03-24T23:19:20.759Z,1.00
2023-03-24T23:21:47.300Z,1.00
2023-03-24T23:24:13.812Z,99.90
2023-03-24T23:26:40.333Z,1.00
2023-03-24T23:29:06.840Z,1.00
2023-03-24T23:31:33.533Z,1.00
2023-03-24T23:34:00.495Z,1.00
2023-03-24T23:36:28.105Z,1.00
2023-03-24T23:38:54.728Z,99.90
2023-03-24T23:41:21.711Z,1.00
2023-03-24T23:43:49.290Z,1.00
2023-03-24T23:46:16.435Z,1.00
2023-03-24T23:48:43.106Z,1.00
2023-03-24T23:51:09.717Z,1.00
2023-03-24T23:53:36.476Z,99.90
2023-03-24T23:56:07.199Z,1.00
2023-03-24T23:58:35.046Z,98.50
